Time;durP1;ratioP1;P1;durP2;ratioP2;P2;SDS_P1;SDS_P2;PMS_P1;PMS_P2;Temp;Humidity;BMP_temperature;BMP_pressure;BME280_temperature;BME280_humidity;BME280_pressure;Samples;Min_cycle;Max_cycle;Signal;HPM_P1;HPM_P2
2023/10/23 00:00:56;;;;;;;6.50;1.80;;;;;;;8.82;100.00;101796.22;4958777;28;20198;-71
2023/10/23 00:03:22;;;;;;;5.27;1.70;;;;;;;8.81;100.00;101779.34;4962158;28;20691;-70
2023/10/23 00:05:48;;;;;;;4.20;1.80;;;;;;;8.99;100.00;101791.75;4961988;28;20202;-71
2023/10/23 00:08:14;;;;;;;5.73;1.80;;;;;;;9.08;100.00;101822.03;4962698;28;20465;-71
2023/10/23 00:10:42;;;;;;;4.07;1.97;;;;;;;8.71;100.00;101769.81;4961493;28;20236;-71
2023/10/23 00:13:07;;;;;;;3.60;1.70;;;;;;;8.96;100.00;101829.53;4954890;28;20201;-71
2023/10/23 00:15:34;;;;;;;6.13;2.27;;;;;;;8.34;100.00;101755.78;4973138;28;20451;-72
2023/10/23 00:17:59;;;;;;;4.70;1.90;;;;;;;8.44;100.00;101736.94;4961115;28;20211;-70
2023/10/23 00:20:25;;;;;;;5.20;1.90;;;;;;;9.04;100.00;101832.22;4959713;28;20967;-70
2023/10/23 00:22:50;;;;;;;4.53;1.80;;;;;;;8.77;100.00;101828.81;4959447;28;20190;-70
2023/10/23 00:25:15;;;;;;;4.00;1.90;;;;;;;8.62;100.00;101813.53;4959538;28;20724;-70
2023/10/23 00:27:41;;;;;;;4.80;1.97;;;;;;;8.33;100.00;101748.78;4958965;28;20183;-71
2023/10/23 00:30:07;;;;;;;6.00;2.03;;;;;;;8.97;100.00;101840.09;4962859;28;20228;-70
2023/10/23 00:32:32;;;;;;;3.70;2.07;;;;;;;8.78;100.00;101832.34;4961054;28;20281;-70
2023/10/23 00:34:57;;;;;;;4.70;2.27;;;;;;;8.64;100.00;101836.47;4963154;28;20191;-70
2023/10/23 00:37:23;;;;;;;5.60;2.33;;;;;;;8.59;100.00;101830.75;4962113;28;20225;-70
2023/10/23 00:39:48;;;;;;;4.43;2.30;;;;;;;8.46;100.00;101830.38;4959871;28;20206;-70
2023/10/23 00:42:14;;;;;;;4.50;1.90;;;;;;;8.72;100.00;101855.22;4958773;28;20198;-70
2023/10/23 00:44:39;;;;;;;7.00;2.20;;;;;;;7.90;100.00;101744.41;4960622;28;20546;-70
2023/10/23 00:47:05;;;;;;;5.63;2.60;;;;;;;8.53;100.00;101879.53;4956066;28;20194;-71
2023/10/23 00:49:30;;;;;;;5.40;2.30;;;;;;;8.48;100.00;101872.00;4958027;28;20249;-71
2023/10/23 00:51:56;;;;;;;6.30;2.30;;;;;;;7.77;100.00;101779.53;4959364;28;20503;-71
2023/10/23 00:54:22;;;;;;;4.90;2.03;;;;;;;8.57;100.00;101910.31;4960320;28;20186;-71
2023/10/23 00:56:48;;;;;;;3.73;2.03;;;;;;;8.36;100.00;101907.97;4963995;28;20201;-71
2023/10/23 00:59:14;;;;;;;6.57;1.90;;;;;;;8.60;100.00;101931.41;4965582;28;20481;-71
2023/10/23 01:01:42;;;;;;;4.67;2.70;;;;;;;8.56;100.00;101948.75;4968976;28;20456;-71
2023/10/23 01:04:08;;;;;;;7.47;3.23;;;;;;;8.52;100.00;101958.91;4965813;28;20190;-71
2023/10/23 01:06:33;;;;;;;5.60;2.47;;;;;;;8.55;100.00;101963.13;4967514;28;20464;-71
2023/10/23 01:08:59;;;;;;;6.27;2.37;;;;;;;8.38;100.00;101940.75;4962941;28;20604;-70
2023/10/23 01:11:25;;;;;;;4.63;2.10;;;;;;;8.79;100.00;101986.47;4961091;28;20202;-70
2023/10/23 01:13:50;;;;;;;3.87;2.03;;;;;;;8.43;100.00;101973.25;4963752;28;20194;-71
2023/10/23 01:16:15;;;;;;;4.10;2.10;;;;;;;8.55;100.00;101971.97;4960827;28;20671;-70
2023/10/23 01:18:41;;;;;;;7.90;2.70;;;;;;;8.71;100.00;101995.31;4965024;28;20230;-71
2023/10/23 01:21:06;;;;;;;4.57;2.73;;;;;;;8.94;100.00;102011.66;4958887;28;21200;-70
2023/10/23 01:23:35;;;;;;;4.80;2.30;;;;;;;8.34;100.00;101985.69;4962367;28;20685;-71
2023/10/23 01:26:00;;;;;;;4.97;2.27;;;;;;;8.66;100.00;102035.06;4961389;28;20194;-71
2023/10/23 01:28:26;;;;;;;4.77;2.70;;;;;;;8.74;100.00;102028.94;4962967;28;20596;-71
2023/10/23 01:30:51;;;;;;;5.90;2.73;;;;;;;8.30;100.00;102003.03;4958580;28;20198;-70
2023/10/23 01:33:17;;;;;;;5.10;2.77;;;;;;;8.37;100.00;102017.44;4961790;28;20194;-71
2023/10/23 01:35:42;;;;;;;6.40;2.57;;;;;;;8.46;100.00;102022.88;4969549;28;20216;-70
2023/10/23 01:38:07;;;;;;;5.70;3.00;;;;;;;7.89;100.00;101951.91;4970373;28;20225;-70
2023/10/23 01:40:33;;;;;;;5.60;2.60;;;;;;;8.40;100.00;102015.50;4960457;28;20266;-71
2023/10/23 01:42:58;;;;;;;4.40;2.20;;;;;;;8.62;100.00;102054.25;4964111;28;20562;-71
2023/10/23 01:45:24;;;;;;;4.80;2.30;;;;;;;7.83;100.00;101917.78;4977623;28;20190;-71
2023/10/23 01:47:49;;;;;;;5.50;2.40;;;;;;;8.23;100.00;101966.38;4959959;28;20198;-71
2023/10/23 01:50:15;;;;;;;6.23;2.70;;;;;;;8.58;100.00;102072.44;4962135;28;20202;-70
2023/10/23 01:52:41;;;;;;;6.03;2.70;;;;;;;8.42;100.00;102065.16;4959617;28;20202;-71
2023/10/23 01:55:07;;;;;;;5.60;2.43;;;;;;;8.53;100.00;102056.88;4978530;28;20198;-70
2023/10/23 01:57:33;;;;;;;7.33;3.00;;;;;;;8.38;100.00;102059.25;4960530;28;20492;-70
2023/10/23 02:00:04;;;;;;;5.47;2.80;;;;;;;8.35;100.00;102013.25;4960984;28;20602;-70
2023/10/23 02:02:30;;;;;;;7.30;2.43;;;;;;;8.78;100.00;102065.06;4960014;28;20198;-70
2023/10/23 02:04:56;;;;;;;4.43;2.40;;;;;;;9.03;100.00;102074.09;4957497;28;20450;-71
2023/10/23 02:07:21;;;;;;;8.57;2.90;;;;;;;8.76;100.00;102046.50;4975853;28;20442;-71
2023/10/23 02:09:46;;;;;;;8.10;3.20;;;;;;;8.39;100.00;102033.38;4959633;28;20217;-71
2023/10/23 02:12:12;;;;;;;4.70;2.37;;;;;;;8.55;100.00;102059.38;4963048;28;20707;-70
2023/10/23 02:14:37;;;;;;;6.77;3.30;;;;;;;8.37;100.00;102016.63;4960753;28;20325;-71
2023/10/23 02:17:03;;;;;;;4.93;3.00;;;;;;;7.59;100.00;101931.78;4958287;28;20202;-70
2023/10/23 02:19:30;;;;;;;5.77;3.40;;;;;;;8.59;100.00;102083.00;4955696;28;20265;-70
2023/10/23 02:21:55;;;;;;;6.33;3.37;;;;;;;8.02;100.00;102002.28;4973002;28;20635;-70
2023/10/23 02:24:20;;;;;;;7.27;3.73;;;;;;;8.22;100.00;102048.41;4958007;28;20449;-70
2023/10/23 02:26:49;;;;;;;6.20;3.00;;;;;;;8.54;100.00;102085.31;4957946;28;20183;-71
2023/10/23 02:29:15;;;;;;;6.47;3.53;;;;;;;8.15;100.00;102047.31;4955935;28;20301;-70
2023/10/23 02:31:40;;;;;;;8.17;3.40;;;;;;;8.39;100.00;102108.25;4953503;28;20525;-71
2023/10/23 02:34:06;;;;;;;7.27;3.80;;;;;;;8.42;100.00;102117.75;4956801;28;20191;-71
2023/10/23 02:36:31;;;;;;;4.80;3.33;;;;;;;8.35;100.00;102113.00;4961033;28;20183;-71
2023/10/23 02:38:57;;;;;;;6.53;3.17;;;;;;;8.15;100.00;102060.69;4967354;28;20214;-71
2023/10/23 02:41:23;;;;;;;7.10;3.10;;;;;;;8.50;100.00;102107.13;4965779;28;20556;-71
2023/10/23 02:43:49;;;;;;;6.77;3.50;;;;;;;8.77;100.00;102116.91;4962402;28;20452;-71
2023/10/23 02:46:15;;;;;;;6.53;2.97;;;;;;;8.49;100.00;102098.28;4963628;28;20708;-71
2023/10/23 02:48:41;;;;;;;6.60;3.70;;;;;;;8.41;100.00;102124.13;4958303;28;20524;-71
2023/10/23 02:51:06;;;;;;;5.67;2.93;;;;;;;8.19;100.00;102102.16;4964550;28;20274;-71
2023/10/23 02:53:32;;;;;;;6.23;3.10;;;;;;;8.18;100.00;102119.19;4964166;28;20437;-71
2023/10/23 02:55:57;;;;;;;7.43;3.47;;;;;;;8.26;100.00;102121.94;4958260;28;20572;-70
2023/10/23 02:58:22;;;;;;;5.90;3.10;;;;;;;7.58;100.00;102022.69;4960102;28;20708;-71
2023/10/23 03:00:48;;;;;;;8.40;3.23;;;;;;;8.19;100.00;102131.56;4961467;28;20187;-71
2023/10/23 03:03:13;;;;;;;5.30;3.50;;;;;;;7.66;100.00;102066.34;4960354;28;20698;-70
2023/10/23 03:05:39;;;;;;;7.37;3.17;;;;;;;7.98;100.00;102128.31;4960064;28;20198;-70
2023/10/23 03:08:05;;;;;;;7.60;3.50;;;;;;;7.76;100.00;102125.09;4962007;28;20189;-70
2023/10/23 03:10:31;;;;;;;8.33;3.97;;;;;;;8.18;100.00;102180.66;4965007;28;20245;-70
2023/10/23 03:12:56;;;;;;;6.60;4.13;;;;;;;8.27;100.00;102192.28;4956875;28;20957;-71
2023/10/23 03:15:22;;;;;;;7.17;3.53;;;;;;;8.35;100.00;102201.22;4964626;28;20442;-70
2023/10/23 03:17:48;;;;;;;5.30;4.00;;;;;;;8.38;100.00;102200.94;4960057;28;20689;-70
2023/10/23 03:20:14;;;;;;;6.67;3.80;;;;;;;8.47;100.00;102206.38;4963031;28;20476;-71
2023/10/23 03:22:39;;;;;;;7.43;4.50;;;;;;;8.69;100.00;102227.34;4960883;28;20190;-71
2023/10/23 03:25:06;;;;;;;6.13;4.00;;;;;;;8.32;100.00;102174.78;4962374;28;20855;-71
2023/10/23 03:27:32;;;;;;;5.07;3.27;;;;;;;8.55;100.00;102214.50;4961994;28;20216;-70
2023/10/23 03:29:57;;;;;;;7.27;4.33;;;;;;;8.37;100.00;102207.28;4960317;28;20976;-71
2023/10/23 03:32:23;;;;;;;6.10;3.60;;;;;;;8.63;100.00;102219.94;4956262;28;20189;-70
2023/10/23 03:34:49;;;;;;;6.83;3.77;;;;;;;8.53;100.00;102211.13;4961815;28;20651;-71
2023/10/23 03:37:14;;;;;;;8.97;4.17;;;;;;;8.28;100.00;102165.41;4967591;28;20186;-71
2023/10/23 03:39:40;;;;;;;7.53;4.23;;;;;;;8.66;100.00;102200.91;4960721;28;20203;-71
2023/10/23 03:42:06;;;;;;;6.10;4.00;;;;;;;8.59;100.00;102184.63;4956798;28;20194;-70
2023/10/23 03:44:31;;;;;;;5.67;3.70;;;;;;;8.68;100.00;102190.91;4962073;28;20528;-71
2023/10/23 03:46:57;;;;;;;6.50;3.53;;;;;;;8.57;100.00;102183.94;4955979;28;20191;-71
2023/10/23 03:49:22;;;;;;;8.10;3.80;;;;;;;8.28;100.00;102176.09;4961197;28;20791;-70
2023/10/23 03:51:48;;;;;;;6.30;4.20;;;;;;;8.05;100.00;102116.06;4963606;28;20178;-70
2023/10/23 03:54:13;;;;;;;5.37;3.77;;;;;;;7.21;100.00;102012.94;4964692;28;20197;-70
2023/10/23 03:56:38;;;;;;;10.43;3.80;;;;;;;8.34;100.00;102177.31;4959008;28;20191;-70
2023/10/23 03:59:04;;;;;;;7.30;3.90;;;;;;;7.84;100.00;102154.56;4958534;28;20654;-70
2023/10/23 04:01:30;;;;;;;5.97;4.00;;;;;;;7.95;100.00;102160.69;4962097;28;20245;-70
2023/10/23 04:03:55;;;;;;;7.10;4.70;;;;;;;8.10;100.00;102183.22;4959454;28;21313;-70
2023/10/23 04:06:21;;;;;;;5.53;4.20;;;;;;;8.03;100.00;102155.44;4963372;28;20186;-70
2023/10/23 04:08:46;;;;;;;5.80;4.00;;;;;;;7.82;100.00;102155.69;4961973;28;20209;-70
2023/10/23 04:11:15;;;;;;;6.70;4.30;;;;;;;7.64;100.00;102137.78;4958376;28;20198;-70
2023/10/23 04:13:40;;;;;;;7.93;4.60;;;;;;;7.92;100.00;102212.56;4962839;28;20193;-70
2023/10/23 04:16:06;;;;;;;5.27;3.77;;;;;;;7.95;100.00;102220.28;4958763;28;21017;-70
2023/10/23 04:18:32;;;;;;;8.93;4.67;;;;;;;7.89;100.00;102227.06;4962859;28;20342;-70
2023/10/23 04:21:03;;;;;;;6.93;4.80;;;;;;;8.05;100.00;102233.63;4959460;28;20187;-70
2023/10/23 04:23:28;;;;;;;7.77;4.67;;;;;;;8.01;100.00;102237.56;4957380;28;20183;-70
2023/10/23 04:25:55;;;;;;;6.90;4.30;;;;;;;8.19;100.00;102250.97;4958448;28;20860;-70
2023/10/23 04:28:21;;;;;;;6.33;3.87;;;;;;;8.10;100.00;102242.88;4962905;28;20189;-70
2023/10/23 04:30:46;;;;;;;6.93;4.43;;;;;;;8.09;100.00;102240.34;4953668;28;20442;-70
2023/10/23 04:33:12;;;;;;;6.70;4.23;;;;;;;8.40;100.00;102256.97;4962585;28;20441;-70
2023/10/23 04:35:37;;;;;;;6.70;4.07;;;;;;;8.40;100.00;102248.09;4964218;28;20237;-70
2023/10/23 04:38:03;;;;;;;6.53;4.00;;;;;;;8.05;100.00;102212.25;4962166;28;20257;-70
2023/10/23 04:40:28;;;;;;;6.43;4.50;;;;;;;8.22;100.00;102219.47;4966336;28;20225;-70
2023/10/23 04:42:53;;;;;;;7.63;4.53;;;;;;;8.11;100.00;102196.47;4964165;28;20307;-70
2023/10/23 04:45:19;;;;;;;5.90;4.30;;;;;;;7.65;100.00;102144.81;4962141;28;20222;-70
2023/10/23 04:47:44;;;;;;;5.90;4.73;;;;;;;8.06;100.00;102185.38;4957896;28;20748;-70
2023/10/23 04:50:12;;;;;;;8.40;4.60;;;;;;;8.02;100.00;102201.88;4956806;28;20222;-70
2023/10/23 04:52:38;;;;;;;6.10;3.87;;;;;;;7.94;100.00;102189.22;4964880;28;20848;-70
2023/10/23 04:55:05;;;;;;;6.90;4.10;;;;;;;7.69;100.00;102108.81;4956930;28;20582;-70
2023/10/23 04:57:30;;;;;;;6.30;4.20;;;;;;;7.30;100.00;102084.13;4959980;28;20960;-71
2023/10/23 04:59:56;;;;;;;5.90;3.77;;;;;;;7.89;100.00;102191.50;4958735;28;20249;-71
2023/10/23 05:02:21;;;;;;;6.07;3.70;;;;;;;7.84;100.00;102177.75;4968584;28;20264;-70
2023/10/23 05:04:47;;;;;;;5.97;3.93;;;;;;;7.91;100.00;102160.16;4974805;28;20198;-70
2023/10/23 05:07:12;;;;;;;6.00;4.07;;;;;;;7.90;100.00;102170.00;4965098;28;20199;-70
2023/10/23 05:09:37;;;;;;;4.97;2.93;;;;;;;7.74;100.00;102136.91;4961381;28;20277;-70
2023/10/23 05:12:04;;;;;;;7.17;5.10;;;;;;;7.63;100.00;102148.59;4959680;28;20190;-71
2023/10/23 05:14:30;;;;;;;7.57;4.23;;;;;;;7.63;100.00;102121.91;4961053;28;20189;-70
2023/10/23 05:16:55;;;;;;;6.10;4.00;;;;;;;7.71;100.00;102114.00;4958588;28;20441;-71
2023/10/23 05:19:21;;;;;;;6.47;3.70;;;;;;;7.72;100.00;102115.66;4955415;28;20223;-70
2023/10/23 05:21:47;;;;;;;6.70;4.40;;;;;;;7.75;100.00;102104.69;4961222;28;20174;-70
2023/10/23 05:24:12;;;;;;;7.10;4.00;;;;;;;6.92;100.00;102029.91;4958005;28;20970;-71
2023/10/23 05:26:38;;;;;;;7.13;3.90;;;;;;;7.22;100.00;102058.16;4973742;28;20198;-70
2023/10/23 05:29:03;;;;;;;5.80;3.77;;;;;;;7.69;100.00;102075.91;4955016;28;20222;-71
2023/10/23 05:31:29;;;;;;;5.87;4.20;;;;;;;7.63;100.00;102058.66;4959818;28;20265;-70
2023/10/23 05:33:54;;;;;;;6.30;4.43;;;;;;;7.74;100.00;102070.97;4964269;28;20223;-70
2023/10/23 05:36:19;;;;;;;5.80;3.93;;;;;;;7.06;100.00;101974.38;4977742;28;20668;-70
2023/10/23 05:38:45;;;;;;;6.40;4.00;;;;;;;6.94;100.00;101963.06;4960228;28;20293;-70
2023/10/23 05:41:10;;;;;;;6.17;3.77;;;;;;;7.39;100.00;102077.06;4963836;28;20290;-70
2023/10/23 05:43:36;;;;;;;5.83;3.60;;;;;;;6.88;100.00;101985.00;4960651;28;20195;-70
2023/10/23 05:46:05;;;;;;;6.17;3.93;;;;;;;6.96;100.00;102031.28;4969810;28;20202;-70
2023/10/23 05:48:31;;;;;;;8.03;4.40;;;;;;;7.36;100.00;102066.69;4954379;28;20210;-70
2023/10/23 05:50:58;;;;;;;8.60;5.00;;;;;;;7.01;100.00;102021.03;4956189;28;20446;-70
2023/10/23 05:53:24;;;;;;;5.70;4.20;;;;;;;7.19;100.00;102060.28;4971596;28;20187;-70
2023/10/23 05:55:50;;;;;;;6.97;3.93;;;;;;;7.37;100.00;102058.50;4955175;28;20454;-70
2023/10/23 05:58:15;;;;;;;5.80;4.00;;;;;;;7.32;100.00;102050.13;4954489;28;20219;-70
2023/10/23 06:00:40;;;;;;;6.83;3.80;;;;;;;7.21;100.00;102045.81;4954959;28;20233;-70
2023/10/23 06:03:06;;;;;;;6.80;3.70;;;;;;;6.78;100.00;101985.06;4955760;28;20191;-70
2023/10/23 06:05:31;;;;;;;4.57;3.47;;;;;;;7.32;100.00;102023.44;4952733;28;20263;-70
2023/10/23 06:07:57;;;;;;;5.57;3.93;;;;;;;6.93;100.00;101990.75;4956377;28;20256;-70
2023/10/23 06:10:22;;;;;;;5.00;3.37;;;;;;;6.94;100.00;101982.63;4953714;28;20277;-70
2023/10/23 06:12:48;;;;;;;5.80;3.83;;;;;;;7.35;100.00;102051.66;4955643;28;20681;-70
2023/10/23 06:15:13;;;;;;;6.00;4.07;;;;;;;7.27;100.00;102060.41;4956201;28;20194;-70
2023/10/23 06:17:38;;;;;;;6.60;4.87;;;;;;;7.04;100.00;102037.75;4959668;28;20198;-70
2023/10/23 06:20:05;;;;;;;9.20;5.00;;;;;;;7.28;100.00;102067.41;4952318;28;20880;-70
2023/10/23 06:22:30;;;;;;;7.53;4.80;;;;;;;7.07;100.00;102056.97;4949714;28;20186;-70
2023/10/23 06:24:56;;;;;;;6.77;4.40;;;;;;;7.00;100.00;102056.72;4955609;28;20438;-70
2023/10/23 06:27:23;;;;;;;8.43;4.93;;;;;;;7.15;100.00;102073.09;4957014;28;20989;-70
2023/10/23 06:29:49;;;;;;;6.53;4.40;;;;;;;7.37;100.00;102079.03;4954309;28;20238;-70
2023/10/23 06:32:17;;;;;;;7.87;5.20;;;;;;;7.64;100.00;102092.41;4957513;28;20967;-70
2023/10/23 06:34:43;;;;;;;5.63;4.37;;;;;;;7.13;100.00;102013.69;4953188;28;20888;-70
2023/10/23 06:37:08;;;;;;;7.53;4.60;;;;;;;7.43;100.00;102122.00;4957785;28;20492;-70
2023/10/23 06:39:33;;;;;;;6.17;4.70;;;;;;;7.14;100.00;102067.88;4969393;28;20221;-70
2023/10/23 06:41:59;;;;;;;8.33;4.40;;;;;;;7.48;100.00;102106.38;4953415;28;20822;-71
2023/10/23 06:44:24;;;;;;;6.10;4.17;;;;;;;7.40;100.00;102111.59;4957823;28;20244;-70
2023/10/23 06:46:49;;;;;;;7.80;5.30;;;;;;;7.42;100.00;102147.00;4957727;28;20182;-70
2023/10/23 06:49:15;;;;;;;8.93;4.60;;;;;;;7.11;100.00;102092.19;4958290;28;20269;-70
2023/10/23 06:51:41;;;;;;;6.60;5.03;;;;;;;7.23;100.00;102101.69;4954902;28;20186;-70
2023/10/23 06:54:06;;;;;;;7.60;4.97;;;;;;;7.58;100.00;102164.22;4956281;28;20182;-70
2023/10/23 06:56:32;;;;;;;6.10;4.10;;;;;;;7.58;100.00;102182.91;4955717;28;20525;-72
2023/10/23 06:58:57;;;;;;;6.83;4.57;;;;;;;7.67;100.00;102196.25;4954291;28;20218;-70
2023/10/23 07:01:22;;;;;;;7.47;4.60;;;;;;;7.65;100.00;102186.69;4958062;28;20188;-70
2023/10/23 07:03:48;;;;;;;5.97;4.87;;;;;;;7.74;100.00;102217.88;4957361;28;20190;-70
2023/10/23 07:06:13;;;;;;;10.10;5.00;;;;;;;7.18;100.00;102134.16;4956716;28;20194;-70
2023/10/23 07:08:39;;;;;;;7.30;5.00;;;;;;;7.38;100.00;102176.81;4955442;28;20203;-70
2023/10/23 07:11:15;;;;;;;7.33;5.27;;;;;;;7.03;100.00;102135.63;4953460;28;20187;-70
2023/10/23 07:13:40;;;;;;;9.20;5.70;;;;;;;7.72;100.00;102245.69;4970732;28;20508;-70
2023/10/23 07:16:06;;;;;;;8.87;5.80;;;;;;;7.15;100.00;102165.63;4956636;28;20489;-70
2023/10/23 07:18:31;;;;;;;8.40;6.10;;;;;;;7.89;100.00;102291.19;4951823;28;20215;-70
2023/10/23 07:20:59;;;;;;;7.20;5.40;;;;;;;7.94;100.00;102309.47;4960035;28;20191;-70
2023/10/23 07:23:26;;;;;;;9.60;5.67;;;;;;;7.97;100.00;102325.19;4960407;28;20758;-70
2023/10/23 07:26:07;;;;;;;8.93;6.27;;;;;;;8.03;100.00;102340.66;4957782;28;20446;-70
2023/10/23 07:28:40;;;;;;;8.47;5.20;;;;;;;7.94;100.00;102309.47;4957137;28;20464;-70
2023/10/23 07:31:07;;;;;;;7.90;5.50;;;;;;;8.31;100.00;102389.66;4973291;28;20437;-70
2023/10/23 07:33:33;;;;;;;9.63;5.37;;;;;;;8.49;100.00;102388.94;4969595;28;20434;-70
2023/10/23 07:36:06;;;;;;;9.23;5.57;;;;;;;8.41;100.00;102402.19;4961337;28;20446;-70
2023/10/23 07:38:32;;;;;;;8.87;5.30;;;;;;;8.46;100.00;102410.63;4957223;28;20478;-70
2023/10/23 07:40:58;;;;;;;8.23;4.40;;;;;;;8.54;100.00;102405.38;4958972;28;20427;-70
2023/10/23 07:43:25;;;;;;;8.23;5.03;;;;;;;8.63;100.00;102417.88;4957066;28;20889;-70
2023/10/23 07:45:51;;;;;;;7.90;5.40;;;;;;;8.53;100.00;102415.25;4955423;28;20194;-69
2023/10/23 07:48:17;;;;;;;7.33;4.90;;;;;;;8.71;100.00;102423.34;4955985;28;20434;-70
2023/10/23 07:50:42;;;;;;;8.27;4.90;;;;;;;8.51;100.00;102425.25;4955928;28;20334;-70
2023/10/23 07:53:08;;;;;;;10.00;5.87;;;;;;;8.53;100.00;102425.94;4955952;28;20438;-70
2023/10/23 07:55:33;;;;;;;8.23;5.90;;;;;;;8.51;100.00;102438.59;4959228;28;20277;-70
2023/10/23 07:58:00;;;;;;;7.93;6.03;;;;;;;8.47;100.00;102409.63;4974018;28;20291;-70
2023/10/23 08:00:27;;;;;;;9.10;4.93;;;;;;;8.75;100.00;102421.19;4956920;28;20211;-70
2023/10/23 08:02:53;;;;;;;7.30;5.03;;;;;;;8.68;100.00;102412.94;4956423;28;20533;-70
2023/10/23 08:05:18;;;;;;;7.43;5.53;;;;;;;8.51;100.00;102361.06;4960725;28;20446;-70
2023/10/23 08:07:43;;;;;;;8.33;5.10;;;;;;;8.95;100.00;102417.44;4957455;28;20183;-70
2023/10/23 08:10:09;;;;;;;8.23;5.57;;;;;;;8.57;100.00;102389.88;4959132;28;20206;-72
2023/10/23 08:12:34;;;;;;;7.57;5.07;;;;;;;8.69;100.00;102389.69;4958579;28;20199;-72
2023/10/23 08:15:00;;;;;;;12.97;5.57;;;;;;;9.00;100.00;102411.63;4955636;28;20250;-73
2023/10/23 08:17:25;;;;;;;8.00;5.80;;;;;;;8.95;100.00;102422.78;4955640;28;20273;-70
2023/10/23 08:19:51;;;;;;;6.90;5.40;;;;;;;9.17;100.00;102424.22;4956209;28;20214;-70
2023/10/23 08:22:16;;;;;;;8.17;4.93;;;;;;;9.15;100.00;102426.19;4962147;28;20190;-70
2023/10/23 08:24:41;;;;;;;7.90;5.13;;;;;;;9.25;100.00;102399.34;4961783;28;20695;-72
2023/10/23 08:27:07;;;;;;;8.60;5.63;;;;;;;9.00;100.00;102344.72;4957312;28;21673;-70
2023/10/23 08:29:33;;;;;;;7.40;5.20;;;;;;;9.02;100.00;102324.81;4956609;28;20214;-70
2023/10/23 08:31:59;;;;;;;7.93;5.97;;;;;;;9.34;100.00;102382.34;4960830;28;20195;-69
2023/10/23 08:34:25;;;;;;;7.47;5.43;;;;;;;9.53;100.00;102367.13;4970502;28;20179;-73
2023/10/23 08:36:50;;;;;;;8.37;6.00;;;;;;;9.38;100.00;102326.66;4964022;28;20473;-71
2023/10/23 08:39:18;;;;;;;9.80;5.90;;;;;;;9.57;100.00;102347.06;4962280;28;20293;-70
2023/10/23 08:41:43;;;;;;;7.37;5.20;;;;;;;9.72;100.00;102324.09;4959941;28;20202;-70
2023/10/23 08:44:09;;;;;;;6.93;4.77;;;;;;;9.79;100.00;102311.72;4961914;28;20960;-71
2023/10/23 08:46:37;;;;;;;7.13;5.00;;;;;;;9.94;100.00;102320.88;4965480;28;20546;-70
2023/10/23 08:49:03;;;;;;;5.97;4.80;;;;;;;9.71;100.00;102250.88;4954979;28;20453;-72
2023/10/23 08:51:30;;;;;;;5.80;4.60;;;;;;;10.06;100.00;102264.31;4955676;28;20498;-71
2023/10/23 08:54:03;;;;;;;10.63;6.97;;;;;;;9.92;100.00;102290.72;4956952;28;20431;-70
2023/10/23 08:56:32;;;;;;;8.83;5.87;;;;;;;9.92;100.00;102280.00;4956969;28;20879;-71
2023/10/23 08:58:59;;;;;;;8.30;5.37;;;;;;;9.67;100.00;102243.34;4956693;28;20843;-70
2023/10/23 09:01:25;;;;;;;7.43;5.40;;;;;;;9.87;100.00;102255.50;4956862;28;20439;-71
2023/10/23 09:03:51;;;;;;;6.80;5.57;;;;;;;9.92;100.00;102228.22;4957695;28;20454;-70
2023/10/23 09:06:18;;;;;;;7.17;5.50;;;;;;;9.98;100.00;102238.31;4959919;28;21004;-70
2023/10/23 09:08:44;;;;;;;7.43;5.20;;;;;;;10.04;100.00;102234.13;4959226;28;20202;-71
2023/10/23 09:11:09;;;;;;;8.40;4.77;;;;;;;10.07;100.00;102181.06;4958545;28;20423;-71
2023/10/23 09:13:38;;;;;;;7.43;4.90;;;;;;;10.05;100.00;102156.25;4961044;28;21164;-70
2023/10/23 09:16:05;;;;;;;8.37;5.57;;;;;;;10.33;100.00;102202.44;4958026;28;20202;-71
2023/10/23 09:18:32;;;;;;;10.97;5.33;;;;;;;9.99;100.00;102154.22;4953488;28;20909;-70
2023/10/23 09:20:58;;;;;;;6.47;4.73;;;;;;;10.32;100.00;102181.13;4969867;28;20509;-70
2023/10/23 09:23:24;;;;;;;6.53;4.60;;;;;;;10.58;100.00;102172.97;4970810;28;21000;-71
2023/10/23 09:25:55;;;;;;;6.00;4.33;;;;;;;10.09;100.00;102079.81;4953875;28;20419;-70
2023/10/23 09:28:21;;;;;;;9.70;5.27;;;;;;;9.58;100.00;101993.34;4970316;28;20418;-70
2023/10/23 09:30:46;;;;;;;9.07;5.50;;;;;;;10.72;100.00;102142.78;4958332;28;20419;-70
2023/10/23 09:33:14;;;;;;;8.70;5.30;;;;;;;10.83;100.00;102136.25;4974893;28;20630;-71
2023/10/23 09:35:40;;;;;;;9.00;5.83;;;;;;;10.61;100.00;102070.66;4961636;28;20661;-71
2023/10/23 09:38:15;;;;;;;8.20;4.73;;;;;;;11.15;100.00;102110.34;4957427;28;21048;-71
2023/10/23 09:40:43;;;;;;;7.93;4.87;;;;;;;11.08;100.00;102089.56;4956012;28;20477;-71
2023/10/23 09:43:08;;;;;;;9.67;5.13;;;;;;;10.78;100.00;102009.75;4953529;28;20438;-71
2023/10/23 09:45:35;;;;;;;5.60;4.00;;;;;;;11.27;100.00;102063.31;4954758;28;20440;-72
2023/10/23 09:48:02;;;;;;;6.10;4.53;;;;;;;11.14;100.00;102026.28;4957619;28;20183;-72
2023/10/23 09:50:29;;;;;;;5.80;3.93;;;;;;;11.41;100.00;102059.06;4956725;28;20455;-72
2023/10/23 09:52:58;;;;;;;6.57;4.13;;;;;;;11.30;100.00;102062.97;4957031;28;20498;-72
2023/10/23 09:55:27;;;;;;;6.50;4.27;;;;;;;11.47;100.00;102053.81;4956771;28;20439;-72
2023/10/23 09:57:54;;;;;;;6.20;4.67;;;;;;;11.35;100.00;102035.59;4955487;28;20556;-72
2023/10/23 10:00:20;;;;;;;5.50;3.73;;;;;;;11.73;100.00;102018.59;4956461;28;20454;-72
2023/10/23 10:02:51;;;;;;;6.77;4.57;;;;;;;11.80;100.00;102013.31;4957750;28;20512;-72
2023/10/23 10:05:23;;;;;;;6.60;3.70;;;;;;;11.81;100.00;102011.50;4959409;28;20191;-72
2023/10/23 10:08:08;;;;;;;6.57;4.83;;;;;;;11.60;100.00;102009.41;4973475;28;20435;-71
2023/10/23 10:10:36;;;;;;;6.53;4.60;;;;;;;11.59;100.00;101987.09;4950892;28;20458;-75
2023/10/23 10:13:03;;;;;;;8.17;4.93;;;;;;;11.85;100.00;101991.28;4954794;28;20438;-76
2023/10/23 10:15:31;;;;;;;7.93;5.63;;;;;;;11.18;100.00;101895.19;4967693;28;20423;-75
2023/10/23 10:17:56;;;;;;;11.63;4.97;;;;;;;11.79;100.00;101976.72;4954748;28;21262;-76
2023/10/23 10:20:23;;;;;;;7.70;4.70;;;;;;;11.53;100.00;101897.28;4953483;28;20458;-73
2023/10/23 10:23:11;;;;;;;6.67;3.67;;;;;;;12.07;100.00;101950.16;4952983;28;20189;-74
2023/10/23 10:25:38;;;;;;;8.63;4.40;;;;;;;12.24;100.00;101901.56;4970388;28;20461;-72
2023/10/23 10:28:06;;;;;;;6.70;4.30;;;;;;;12.24;100.00;101871.97;4950962;28;20434;-72
2023/10/23 10:30:42;;;;;;;7.70;4.20;;;;;;;12.55;100.00;101890.63;4968483;28;20461;-71
2023/10/23 10:33:15;;;;;;;6.37;3.70;;;;;;;12.27;100.00;101852.81;4951774;28;20445;-71
2023/10/23 10:35:49;;;;;;;6.70;3.17;;;;;;;12.99;100.00;101841.28;4951650;28;20453;-72
2023/10/23 10:38:19;;;;;;;5.20;2.90;;;;;;;12.96;100.00;101822.81;4951675;28;20464;-72
2023/10/23 10:41:04;;;;;;;5.70;2.87;;;;;;;13.32;100.00;101785.06;4955455;28;20909;-72
2023/10/23 10:43:37;;;;;;;6.83;3.83;;;;;;;13.00;100.00;101802.56;4957335;28;20434;-72
2023/10/23 10:46:26;;;;;;;5.47;3.27;;;;;;;13.00;100.00;101757.59;4959339;28;21155;-72
2023/10/23 10:48:53;;;;;;;5.87;3.30;;;;;;;13.38;100.00;101791.56;4953721;28;20469;-71
2023/10/23 10:51:27;;;;;;;4.53;3.00;;;;;;;13.63;100.00;101782.03;4956443;28;20465;-72
2023/10/23 10:53:58;;;;;;;4.30;2.57;;;;;;;14.11;100.00;101765.09;4958170;28;20494;-72
2023/10/23 10:56:23;;;;;;;5.97;3.30;;;;;;;13.95;100.00;101745.50;4961541;28;21132;-72
2023/10/23 10:58:49;;;;;;;4.90;2.87;;;;;;;14.31;100.00;101730.94;4957133;28;20478;-72
2023/10/23 11:01:14;;;;;;;4.30;2.20;;;;;;;14.22;100.00;101676.31;4959709;28;20213;-72
2023/10/23 11:03:41;;;;;;;5.30;2.23;;;;;;;14.48;100.00;101696.31;4960799;28;20198;-71
2023/10/23 11:06:07;;;;;;;4.70;2.30;;;;;;;14.74;100.00;101673.97;4960018;28;20187;-72
2023/10/23 11:08:34;;;;;;;4.77;2.40;;;;;;;14.85;100.00;101630.16;4955693;28;20445;-72
2023/10/23 11:11:04;;;;;;;3.73;2.03;;;;;;;15.10;100.00;101619.56;4956788;28;21076;-72
2023/10/23 11:13:30;;;;;;;5.93;2.90;;;;;;;14.37;100.00;101525.00;4961798;28;20445;-72
2023/10/23 11:15:56;;;;;;;5.50;2.40;;;;;;;14.98;100.00;101540.16;4957498;28;20976;-72
2023/10/23 11:18:22;;;;;;;3.47;1.70;;;;;;;16.07;100.00;101553.91;4958496;28;20462;-72
2023/10/23 11:20:48;;;;;;;5.10;2.13;;;;;;;16.59;100.00;101492.28;4955493;28;20202;-72